createdAt,value
2018-10-03T00:00:06.500Z,95766.81
2018-10-03T00:02:35.129Z,95773.23
2018-10-03T00:05:03.807Z,95769.03
2018-10-03T00:07:32.593Z,95766.58
2018-10-03T00:10:01.228Z,95774.45
2018-10-03T00:12:29.913Z,95778.73
2018-10-03T00:14:58.571Z,95776.34
2018-10-03T00:17:27.199Z,95766.86
2018-10-03T00:19:55.958Z,95772.92
2018-10-03T00:22:24.673Z,95776.73
2018-10-03T00:24:53.344Z,95775.72
2018-10-03T00:27:22.068Z,95780.92
2018-10-03T00:29:50.740Z,95776.73
2018-10-03T00:32:19.418Z,95783.14
2018-10-03T00:34:48.109Z,95783.63
2018-10-03T00:37:16.855Z,95790.05
2018-10-03T00:39:45.556Z,95782.84
2018-10-03T00:42:14.376Z,95599.15
2018-10-03T00:44:43.121Z,95786.86
2018-10-03T00:47:11.890Z,95774.53
2018-10-03T00:49:40.601Z,95784.80
2018-10-03T00:52:09.424Z,95781.85
2018-10-03T00:54:38.176Z,95787.41
2018-10-03T00:57:06.844Z,95785.59
2018-10-03T00:59:35.529Z,95796.08
2018-10-03T01:02:04.285Z,95785.41
2018-10-03T01:04:33.058Z,95793.93
2018-10-03T01:07:01.925Z,95795.28
2018-10-03T01:09:30.618Z,95800.14
2018-10-03T01:11:59.401Z,95799.13
2018-10-03T01:14:28.066Z,95794.73
2018-10-03T01:16:56.813Z,95800.04
2018-10-03T01:19:25.628Z,95795.98
2018-10-03T01:21:54.300Z,95798.69
2018-10-03T01:24:22.949Z,95801.99
2018-10-03T01:26:51.646Z,95803.91
2018-10-03T01:29:20.309Z,95758.68
2018-10-03T01:31:49.018Z,95792.72
2018-10-03T01:34:17.747Z,95790.81
2018-10-03T01:36:46.481Z,95801.83
2018-10-03T01:39:15.220Z,95800.58
2018-10-03T01:41:43.917Z,95806.55
2018-10-03T01:44:12.738Z,95802.23
2018-10-03T01:46:41.505Z,95803.38
2018-10-03T01:49:10.322Z,95804.48
2018-10-03T01:51:39.167Z,95799.08
2018-10-03T01:54:07.974Z,95801.13
2018-10-03T01:56:36.721Z,95805.41
2018-10-03T01:59:05.433Z,95806.75
2018-10-03T02:01:34.257Z,95803.40
2018-10-03T02:04:02.980Z,95805.89
2018-10-03T02:06:31.692Z,95807.24
2018-10-03T02:09:00.338Z,95807.24
2018-10-03T02:11:29.095Z,95811.97
2018-10-03T02:13:57.814Z,95812.87
2018-10-03T02:16:26.576Z,95804.75
2018-10-03T02:18:55.336Z,95807.24
2018-10-03T02:21:24.017Z,95652.59
2018-10-03T02:23:52.689Z,95805.30
2018-10-03T02:26:21.376Z,95800.48
2018-10-03T02:28:50.127Z,95804.99
2018-10-03T02:31:18.926Z,95805.55
2018-10-03T02:33:47.694Z,95794.58
2018-10-03T02:36:16.370Z,95798.78
2018-10-03T02:38:45.190Z,95796.88
2018-10-03T02:41:13.903Z,95801.83
2018-10-03T02:43:42.621Z,95804.84
2018-10-03T02:46:11.396Z,95801.57
2018-10-03T02:48:40.881Z,95803.69
2018-10-03T02:51:09.676Z,95806.09
2018-10-03T02:53:38.460Z,95802.68
2018-10-03T02:56:07.210Z,95801.98
2018-10-03T02:58:35.989Z,95803.52
2018-10-03T03:01:04.740Z,95807.27
2018-10-03T03:03:33.538Z,95799.10
2018-10-03T03:06:02.271Z,95806.66
2018-10-03T03:08:31.071Z,95813.23
2018-10-03T03:10:59.785Z,95814.59
2018-10-03T03:13:28.513Z,95811.98
2018-10-03T03:15:57.244Z,95810.19
2018-10-03T03:18:25.992Z,95811.33
2018-10-03T03:20:54.820Z,95803.06
2018-10-03T03:23:23.522Z,95809.47
2018-10-03T03:25:52.196Z,95805.75
2018-10-03T03:28:20.937Z,95806.30
2018-10-03T03:30:49.704Z,95812.17
2018-10-03T03:33:18.352Z,95813.61
2018-10-03T03:35:47.020Z,95813.50
2018-10-03T03:38:15.741Z,95813.25
2018-10-03T03:40:44.525Z,95808.28
2018-10-03T03:43:13.365Z,95818.17
2018-10-03T03:45:42.054Z,95813.41
2018-10-03T03:48:10.712Z,95804.05
2018-10-03T03:50:39.401Z,95810.55
2018-10-03T03:53:08.286Z,95811.69
2018-10-03T03:55:37.096Z,95805.48
2018-10-03T03:58:05.825Z,95804.23
2018-10-03T04:00:34.574Z,95807.58
2018-10-03T04:03:03.317Z,95811.08
2018-10-03T04:05:32.031Z,95806.23
2018-10-03T04:08:00.781Z,95808.47
2018-10-03T04:10:29.446Z,95809.02
2018-10-03T04:12:58.202Z,95816.15
2018-10-03T04:15:27.045Z,95809.63
2018-10-03T04:17:55.677Z,95822.60
2018-10-03T04:20:24.477Z,95821.25
2018-10-03T04:22:53.277Z,95825.95
2018-10-03T04:25:22.106Z,95822.53
2018-10-03T04:27:51.031Z,95822.05
2018-10-03T04:30:19.794Z,95822.44
2018-10-03T04:32:48.505Z,95828.18
2018-10-03T04:35:17.254Z,95835.41
2018-10-03T04:37:45.946Z,95838.34
2018-10-03T04:40:14.735Z,95832.95
2018-10-03T04:42:43.463Z,95838.90
2018-10-03T04:45:12.140Z,95832.95
2018-10-03T04:47:40.886Z,95847.90
2018-10-03T04:50:09.787Z,95835.65
2018-10-03T04:52:38.512Z,95841.05
2018-10-03T04:55:07.330Z,95857.58
2018-10-03T04:57:35.957Z,95857.11
2018-10-03T05:00:08.747Z,95852.50
2018-10-03T05:02:37.687Z,95856.22
2018-10-03T05:05:06.673Z,95858.02
2018-10-03T05:07:35.293Z,95860.30
2018-10-03T05:10:04.170Z,95866.59
2018-10-03T05:12:32.866Z,95866.59
2018-10-03T05:15:01.559Z,95857.71
2018-10-03T05:17:30.234Z,95856.97
2018-10-03T05:19:58.998Z,95862.22
2018-10-03T05:22:27.722Z,95857.24
2018-10-03T05:24:56.513Z,95862.80
2018-10-03T05:27:25.189Z,95861.73
2018-10-03T05:29:53.974Z,95871.50
2018-10-03T05:32:22.702Z,95863.89
2018-10-03T05:34:51.397Z,95870.29
2018-10-03T05:37:20.149Z,95870.73
2018-10-03T05:39:48.972Z,95868.23
2018-10-03T05:42:17.723Z,95868.77
2018-10-03T05:44:46.511Z,95863.63
2018-10-03T05:47:15.263Z,95869.74
2018-10-03T05:49:43.897Z,95872.03
2018-10-03T05:52:12.713Z,95878.34
2018-10-03T05:54:41.585Z,95879.72
2018-10-03T05:57:10.338Z,95889.86
2018-10-03T05:59:38.991Z,95877.36
2018-10-03T06:02:07.801Z,95882.84
2018-10-03T06:04:36.472Z,95881.52
2018-10-03T06:07:05.230Z,95888.95
2018-10-03T06:09:33.938Z,95887.96
2018-10-03T06:12:02.870Z,95884.94
2018-10-03T06:14:31.584Z,95894.30
2018-10-03T06:17:00.401Z,95887.11
2018-10-03T06:19:29.041Z,95890.03
2018-10-03T06:21:57.933Z,95888.91
2018-10-03T06:24:26.748Z,95899.58
2018-10-03T06:26:55.513Z,95894.56
2018-10-03T06:29:24.413Z,95898.54
2018-10-03T06:31:53.120Z,95905.33
2018-10-03T06:34:21.910Z,95902.22
2018-10-03T06:36:50.700Z,95900.17
2018-10-03T06:39:19.417Z,95906.28
2018-10-03T06:41:51.110Z,95904.33
2018-10-03T06:44:19.805Z,95903.25
2018-10-03T06:46:48.617Z,95908.61
2018-10-03T06:49:17.271Z,95916.71
2018-10-03T06:51:46.057Z,95919.23
2018-10-03T06:54:14.740Z,95913.95
2018-10-03T06:56:43.400Z,95912.80
2018-10-03T06:59:12.164Z,95913.52
2018-10-03T07:01:40.895Z,95913.80
2018-10-03T07:04:09.673Z,95909.48
2018-10-03T07:06:38.485Z,95908.66
2018-10-03T07:09:08.542Z,95907.45
2018-10-03T07:11:37.550Z,95909.52
2018-10-03T07:14:06.357Z,95907.87
2018-10-03T07:16:35.126Z,95916.53
2018-10-03T07:19:03.828Z,95919.57
2018-10-03T07:21:32.571Z,95918.02
2018-10-03T07:24:01.317Z,95915.33
2018-10-03T07:26:30.050Z,95905.34
2018-10-03T07:28:58.950Z,95914.46
2018-10-03T07:31:27.695Z,95739.68
2018-10-03T07:33:56.371Z,95894.09
2018-10-03T07:36:25.094Z,95899.84
2018-10-03T07:38:53.856Z,95906.28
2018-10-03T07:41:22.522Z,95906.33
2018-10-03T07:43:51.279Z,95905.80
2018-10-03T07:46:20.077Z,95902.21
2018-10-03T07:48:48.785Z,95902.64
2018-10-03T07:51:17.501Z,95901.16
2018-10-03T07:53:46.225Z,95894.65
2018-10-03T07:56:15.016Z,95895.31
2018-10-03T07:58:43.837Z,95890.09
2018-10-03T08:01:12.650Z,95896.56
2018-10-03T08:03:41.438Z,95897.17
2018-10-03T08:06:10.108Z,95896.13
2018-10-03T08:08:38.870Z,95902.32
2018-10-03T08:11:07.750Z,95897.73
2018-10-03T08:13:36.453Z,95894.39
2018-10-03T08:16:05.182Z,95888.30
2018-10-03T08:18:33.910Z,95876.56
2018-10-03T08:21:02.819Z,95885.62
2018-10-03T08:23:31.492Z,95884.16
2018-10-03T08:26:00.261Z,95878.19
2018-10-03T08:28:43.810Z,95880.66
2018-10-03T08:31:12.722Z,95878.75
2018-10-03T08:33:41.446Z,95880.48
2018-10-03T08:36:10.180Z,95876.16
2018-10-03T08:38:38.993Z,95880.94
2018-10-03T08:41:07.763Z,95872.38
2018-10-03T08:43:36.575Z,95865.89
2018-10-03T08:46:05.340Z,95868.28
2018-10-03T08:48:34.138Z,95869.91
2018-10-03T08:51:02.882Z,95872.96
2018-10-03T08:53:31.649Z,95869.43
2018-10-03T08:56:00.453Z,95864.20
2018-10-03T08:58:29.329Z,95865.81
2018-10-03T09:00:58.107Z,95858.45
2018-10-03T09:03:26.818Z,95853.38
2018-10-03T09:05:55.507Z,95864.98
2018-10-03T09:08:24.278Z,95855.02
2018-10-03T09:10:52.919Z,95846.73
2018-10-03T09:13:21.601Z,95842.59
2018-10-03T09:15:50.338Z,95843.08
2018-10-03T09:18:19.013Z,95846.21
2018-10-03T09:20:47.777Z,95846.10
2018-10-03T09:23:16.518Z,95844.77
2018-10-03T09:25:45.327Z,95837.21
2018-10-03T09:28:14.190Z,95830.46
2018-10-03T09:30:42.954Z,95831.09
2018-10-03T09:33:11.701Z,95835.03
2018-10-03T09:35:40.353Z,95831.11
2018-10-03T09:38:09.019Z,95822.78
2018-10-03T09:40:37.815Z,95822.86
2018-10-03T09:43:06.761Z,95831.11
2018-10-03T09:45:35.492Z,95826.11
2018-10-03T09:48:04.379Z,95827.28
2018-10-03T09:50:33.052Z,95820.11
2018-10-03T09:53:01.783Z,95812.34
2018-10-03T09:55:30.690Z,95810.14
2018-10-03T09:57:59.452Z,95811.55
2018-10-03T10:00:33.429Z,95814.44
2018-10-03T10:03:02.082Z,95810.20
2018-10-03T10:05:30.965Z,95807.25
2018-10-03T10:07:59.721Z,95805.39
2018-10-03T10:10:28.577Z,95798.05
2018-10-03T10:12:57.394Z,95800.78
2018-10-03T10:15:26.134Z,95618.59
2018-10-03T10:17:54.821Z,95785.83
2018-10-03T10:20:23.550Z,95782.66
2018-10-03T10:22:52.264Z,95780.11
2018-10-03T10:25:21.125Z,95774.98
2018-10-03T10:27:49.756Z,95773.69
2018-10-03T10:30:18.434Z,95772.17
2018-10-03T10:32:47.317Z,95769.80
2018-10-03T10:35:16.074Z,95769.88
2018-10-03T10:37:44.815Z,95770.28
2018-10-03T10:40:13.565Z,95768.82
2018-10-03T10:42:42.496Z,95766.53
2018-10-03T10:45:11.126Z,95762.16
2018-10-03T10:47:39.815Z,95754.48
2018-10-03T10:50:08.612Z,95747.94
2018-10-03T10:52:37.373Z,95744.98
2018-10-03T10:55:06.180Z,95745.39
2018-10-03T10:57:34.897Z,95736.67
2018-10-03T11:00:05.209Z,95729.20
2018-10-03T11:02:33.993Z,95723.21
2018-10-03T11:05:02.637Z,95722.31
2018-10-03T11:07:31.629Z,95716.56
2018-10-03T11:10:00.344Z,95704.11
2018-10-03T11:12:29.096Z,95707.80
2018-10-03T11:14:57.920Z,95703.79
2018-10-03T11:17:26.743Z,95703.59
2018-10-03T11:19:55.479Z,95692.53
2018-10-03T11:22:24.331Z,95692.30
2018-10-03T11:24:53.234Z,95681.22
2018-10-03T11:27:21.890Z,95688.64
2018-10-03T11:29:50.623Z,95678.79
2018-10-03T11:32:19.361Z,95666.94
2018-10-03T11:34:48.202Z,95667.41
2018-10-03T11:37:16.909Z,95666.78
2018-10-03T11:39:45.708Z,95663.16
2018-10-03T11:42:14.409Z,95660.25
2018-10-03T11:44:43.302Z,95651.66
2018-10-03T11:47:12.047Z,95625.67
2018-10-03T11:49:40.785Z,95649.36
2018-10-03T11:52:09.664Z,95659.62
2018-10-03T11:54:38.387Z,95653.27
2018-10-03T11:57:07.275Z,95657.19
2018-10-03T11:59:36.107Z,95653.72
2018-10-03T12:02:04.894Z,95650.25
2018-10-03T12:04:33.607Z,95645.38
2018-10-03T12:07:02.412Z,95638.70
2018-10-03T12:09:31.072Z,95641.47
2018-10-03T12:11:59.768Z,95636.98
2018-10-03T12:14:28.445Z,95644.83
2018-10-03T12:16:57.220Z,95632.66
2018-10-03T12:19:25.914Z,95632.44
2018-10-03T12:21:54.734Z,95635.02
2018-10-03T12:24:23.472Z,95628.79
2018-10-03T12:26:52.266Z,95632.75
2018-10-03T12:29:20.963Z,95636.50
2018-10-03T12:31:49.661Z,95629.87
2018-10-03T12:34:18.433Z,95629.39
2018-10-03T12:36:47.145Z,95628.00
2018-10-03T12:39:15.813Z,95622.41
2018-10-03T12:41:44.517Z,95620.84
2018-10-03T12:44:13.209Z,95613.52
2018-10-03T12:46:41.966Z,95624.80
2018-10-03T12:49:10.745Z,95630.67
2018-10-03T12:51:39.488Z,95626.09
2018-10-03T12:54:08.228Z,95626.06
2018-10-03T12:56:36.939Z,95630.14
2018-10-03T12:59:05.820Z,95622.92
2018-10-03T13:01:34.475Z,95623.05
2018-10-03T13:04:03.200Z,95624.33
2018-10-03T13:06:32.075Z,95617.66
2018-10-03T13:09:00.970Z,95613.58
2018-10-03T13:11:29.645Z,95610.67
2018-10-03T13:13:58.456Z,95619.92
2018-10-03T13:16:27.290Z,95608.05
2018-10-03T13:18:56.063Z,95611.63
2018-10-03T13:21:24.815Z,95612.05
2018-10-03T13:23:53.546Z,95435.11
2018-10-03T13:26:22.368Z,95613.25
2018-10-03T13:28:51.073Z,95614.25
2018-10-03T13:31:19.863Z,95608.55
2018-10-03T13:33:48.653Z,95589.61
2018-10-03T13:36:17.454Z,95602.56
2018-10-03T13:38:46.211Z,95606.71
2018-10-03T13:41:15.010Z,95608.26
2018-10-03T13:43:43.754Z,95612.64
2018-10-03T13:46:12.623Z,95612.25
2018-10-03T13:48:41.302Z,95610.72
2018-10-03T13:51:10.168Z,95612.88
2018-10-03T13:53:38.841Z,95612.28
2018-10-03T13:56:07.659Z,95608.17
2018-10-03T13:58:36.414Z,95614.44
2018-10-03T14:01:05.322Z,95622.11
2018-10-03T14:03:34.046Z,95617.39
2018-10-03T14:06:02.838Z,95607.03
2018-10-03T14:08:31.577Z,95609.58
2018-10-03T14:11:00.390Z,95597.81
2018-10-03T14:13:29.069Z,95614.09
2018-10-03T14:15:57.753Z,95607.42
2018-10-03T14:18:26.586Z,95615.48
2018-10-03T14:20:55.368Z,95616.45
2018-10-03T14:23:24.140Z,95623.52
2018-10-03T14:25:52.927Z,95623.11
2018-10-03T14:28:24.514Z,95632.64
2018-10-03T14:30:53.248Z,95632.36
2018-10-03T14:33:21.996Z,95640.90
2018-10-03T14:35:50.762Z,95637.24
2018-10-03T14:38:20.435Z,95642.69
2018-10-03T14:40:49.183Z,95640.13
2018-10-03T14:43:17.866Z,95603.94
2018-10-03T14:45:46.609Z,95633.60
2018-10-03T14:48:15.329Z,95645.92
2018-10-03T14:50:44.023Z,95641.59
2018-10-03T14:53:12.709Z,95647.43
2018-10-03T14:55:41.582Z,95656.62
2018-10-03T14:58:10.332Z,95650.73
2018-10-03T15:00:39.204Z,95653.30
2018-10-03T15:03:08.006Z,95661.03
2018-10-03T15:05:36.805Z,95658.86
2018-10-03T15:08:05.600Z,95666.04
2018-10-03T15:10:34.368Z,95667.35
2018-10-03T15:13:03.126Z,95670.70
2018-10-03T15:15:31.854Z,95668.88
2018-10-03T15:18:00.670Z,95681.75
2018-10-03T15:20:29.437Z,95681.68
2018-10-03T15:22:58.088Z,95440.17
2018-10-03T15:25:26.810Z,95697.18
2018-10-03T15:27:55.549Z,95697.47
2018-10-03T15:30:24.465Z,95696.95
2018-10-03T15:32:53.240Z,95695.73
2018-10-03T15:35:22.119Z,95694.29
2018-10-03T15:37:51.225Z,95698.25
2018-10-03T15:40:20.074Z,95704.48
2018-10-03T15:42:48.841Z,95708.91
2018-10-03T15:45:17.754Z,95714.03
2018-10-03T15:47:46.536Z,95720.61
2018-10-03T15:50:15.307Z,95715.47
2018-10-03T15:52:44.021Z,95726.11
2018-10-03T15:55:12.879Z,95723.09
2018-10-03T15:57:41.739Z,95737.66
2018-10-03T16:00:10.490Z,95732.61
2018-10-03T16:02:39.652Z,95747.48
2018-10-03T16:05:08.561Z,95757.76
2018-10-03T16:07:37.372Z,95756.13
2018-10-03T16:10:06.476Z,95757.34
2018-10-03T16:12:35.320Z,95757.58
2018-10-03T16:15:04.151Z,95772.54
2018-10-03T16:17:32.952Z,95761.66
2018-10-03T16:20:01.806Z,95770.68
2018-10-03T16:22:30.550Z,95775.64
2018-10-03T16:24:59.313Z,95776.31
2018-10-03T16:27:28.005Z,95787.23
2018-10-03T16:29:56.873Z,95795.70
2018-10-03T16:32:25.848Z,95806.14
2018-10-03T16:34:54.522Z,95808.13
2018-10-03T16:37:23.277Z,95634.10
2018-10-03T16:39:52.042Z,95807.52
2018-10-03T16:42:21.656Z,95813.16
2018-10-03T16:44:50.400Z,95811.75
2018-10-03T16:47:19.195Z,95811.46
2018-10-03T16:49:47.887Z,95823.58
2018-10-03T16:52:16.633Z,95827.20
2018-10-03T16:54:45.310Z,95834.61
2018-10-03T16:57:14.485Z,95837.61
2018-10-03T16:59:43.200Z,95850.01
2018-10-03T17:02:11.995Z,95857.95
2018-10-03T17:04:40.727Z,95863.97
2018-10-03T17:07:09.677Z,95875.36
2018-10-03T17:09:38.385Z,95875.44
2018-10-03T17:12:07.160Z,95869.06
2018-10-03T17:14:37.901Z,95877.60
2018-10-03T17:17:07.055Z,95878.10
2018-10-03T17:19:36.178Z,95881.52
2018-10-03T17:22:05.060Z,95885.44
2018-10-03T17:24:35.192Z,95891.16
2018-10-03T17:27:03.979Z,95885.64
2018-10-03T17:29:32.702Z,95891.55
2018-10-03T17:32:01.566Z,95887.59
2018-10-03T17:34:30.409Z,95897.48
2018-10-03T17:36:59.152Z,95894.92
2018-10-03T17:39:28.489Z,95904.73
2018-10-03T17:41:57.485Z,95907.92
2018-10-03T17:44:26.499Z,95910.45
2018-10-03T17:46:56.568Z,95919.80
2018-10-03T17:49:25.369Z,95919.61
2018-10-03T17:51:54.109Z,95918.73
2018-10-03T17:54:22.820Z,95918.99
2018-10-03T17:56:51.642Z,95918.80
2018-10-03T17:59:20.368Z,95917.13
2018-10-03T18:01:58.336Z,95930.28
2018-10-03T18:04:27.184Z,95941.77
2018-10-03T18:06:55.973Z,95932.35
2018-10-03T18:09:24.709Z,95937.70
2018-10-03T18:11:53.399Z,95941.43
2018-10-03T18:14:22.085Z,95942.27
2018-10-03T18:16:50.820Z,95935.70
2018-10-03T18:19:19.598Z,95945.10
2018-10-03T18:21:48.425Z,95942.77
2018-10-03T18:24:17.086Z,95954.77
2018-10-03T18:26:45.830Z,95958.16
2018-10-03T18:29:14.561Z,95961.34
2018-10-03T18:31:43.225Z,95971.33
2018-10-03T18:34:11.990Z,95969.73
2018-10-03T18:36:40.725Z,95961.37
2018-10-03T18:39:10.190Z,95978.58
2018-10-03T18:41:39.141Z,95964.11
2018-10-03T18:44:07.922Z,95966.34
2018-10-03T18:46:36.730Z,95973.48
2018-10-03T18:49:05.519Z,95971.13
2018-10-03T18:51:34.256Z,95987.97
2018-10-03T18:54:02.963Z,95981.99
2018-10-03T18:56:31.641Z,95990.60
2018-10-03T18:59:00.439Z,95992.84
2018-10-03T19:01:29.172Z,95982.89
2018-10-03T19:03:57.886Z,95981.99
2018-10-03T19:06:26.666Z,95986.97
2018-10-03T19:08:55.381Z,95994.67
2018-10-03T19:11:24.091Z,95997.50
2018-10-03T19:13:52.833Z,95987.41
2018-10-03T19:16:21.498Z,95981.08
2018-10-03T19:18:50.241Z,95980.39
2018-10-03T19:21:19.018Z,95990.14
2018-10-03T19:23:47.732Z,95997.59
2018-10-03T19:26:16.657Z,95999.05
2018-10-03T19:28:45.484Z,96007.72
2018-10-03T19:31:14.192Z,96011.45
2018-10-03T19:33:42.980Z,96013.82
2018-10-03T19:36:11.712Z,96023.98
2018-10-03T19:38:40.509Z,96029.62
2018-10-03T19:41:09.223Z,96020.33
2018-10-03T19:43:37.970Z,96034.34
2018-10-03T19:46:06.670Z,96037.72
2018-10-03T19:48:35.456Z,96033.44
2018-10-03T19:51:04.192Z,96040.22
2018-10-03T19:53:34.226Z,96043.35
2018-10-03T19:56:04.002Z,96055.80
2018-10-03T19:58:33.130Z,96055.89
2018-10-03T20:01:01.855Z,96047.16
2018-10-03T20:03:30.756Z,96049.73
2018-10-03T20:05:59.576Z,96055.73
2018-10-03T20:08:28.319Z,96059.81
2018-10-03T20:10:57.042Z,96058.31
2018-10-03T20:13:25.787Z,96060.66
2018-10-03T20:15:54.618Z,96060.45
2018-10-03T20:18:23.577Z,96063.36
2018-10-03T20:20:52.614Z,96053.52
2018-10-03T20:23:21.722Z,96064.86
2018-10-03T20:25:50.509Z,96064.19
2018-10-03T20:28:19.280Z,96068.45
2018-10-03T20:30:48.005Z,96070.46
2018-10-03T20:33:16.758Z,96073.36
2018-10-03T20:35:45.441Z,96069.73
2018-10-03T20:38:14.139Z,96072.20
2018-10-03T20:40:42.893Z,96075.34
2018-10-03T20:43:11.722Z,96068.78
2018-10-03T20:45:40.497Z,96076.45
2018-10-03T20:48:09.175Z,96083.20
2018-10-03T20:50:37.901Z,96091.52
2018-10-03T20:53:06.668Z,96074.80
2018-10-03T20:55:35.420Z,96075.91
2018-10-03T20:58:04.145Z,96087.20
2018-10-03T21:00:32.865Z,96093.76
2018-10-03T21:03:01.967Z,96105.39
2018-10-03T21:05:30.778Z,96114.63
2018-10-03T21:07:59.488Z,96113.83
2018-10-03T21:10:28.175Z,96127.00
2018-10-03T21:12:56.975Z,96122.88
2018-10-03T21:15:25.688Z,95969.52
2018-10-03T21:17:54.416Z,96122.43
2018-10-03T21:20:23.182Z,96132.75
2018-10-03T21:22:51.937Z,96137.55
2018-10-03T21:25:20.703Z,96139.16
2018-10-03T21:27:49.516Z,96138.14
2018-10-03T21:30:18.297Z,96142.92
2018-10-03T21:32:47.066Z,96142.80
2018-10-03T21:35:15.791Z,96147.62
2018-10-03T21:37:44.512Z,96154.47
2018-10-03T21:40:13.271Z,96162.76
2018-10-03T21:42:42.018Z,96164.03
2018-10-03T21:45:10.821Z,96171.68
2018-10-03T21:47:39.539Z,96165.58
2018-10-03T21:50:08.358Z,96163.04
2018-10-03T21:52:37.113Z,96164.70
2018-10-03T21:55:05.833Z,96161.94
2018-10-03T21:57:34.668Z,96171.70
2018-10-03T22:00:04.496Z,96171.56
2018-10-03T22:02:33.252Z,96171.40
2018-10-03T22:05:01.936Z,96171.09
2018-10-03T22:07:30.655Z,96168.22
2018-10-03T22:09:59.407Z,96171.02
2018-10-03T22:12:28.114Z,96172.36
2018-10-03T22:14:56.858Z,96177.00
2018-10-03T22:17:26.127Z,96177.85
2018-10-03T22:19:56.496Z,96171.97
2018-10-03T22:22:26.130Z,96176.44
2018-10-03T22:24:54.883Z,96136.46
2018-10-03T22:27:25.394Z,96178.58
2018-10-03T22:29:54.041Z,96177.97
2018-10-03T22:32:22.826Z,96191.64
2018-10-03T22:34:51.568Z,96187.66
2018-10-03T22:37:20.342Z,96185.58
2018-10-03T22:39:49.076Z,96194.09
2018-10-03T22:42:17.858Z,96198.13
2018-10-03T22:44:46.606Z,95970.14
2018-10-03T22:47:15.269Z,96204.73
2018-10-03T22:49:44.150Z,96206.71
2018-10-03T22:52:12.910Z,96201.70
2018-10-03T22:54:41.616Z,96200.40
2018-10-03T22:57:10.482Z,96212.63
2018-10-03T22:59:39.193Z,96208.58
2018-10-03T23:02:08.402Z,96207.92
2018-10-03T23:04:37.197Z,96212.55
2018-10-03T23:07:06.011Z,96209.34
2018-10-03T23:09:34.709Z,96207.37
2018-10-03T23:12:03.422Z,96212.99
2018-10-03T23:14:32.208Z,96211.02
2018-10-03T23:17:00.971Z,96218.58
2018-10-03T23:19:29.653Z,96213.17
2018-10-03T23:21:58.340Z,96210.47
2018-10-03T23:24:27.013Z,96211.42
2018-10-03T23:26:55.722Z,96216.23
2018-10-03T23:29:24.426Z,96211.30
2018-10-03T23:31:53.177Z,96220.08
2018-10-03T23:34:21.986Z,96218.94
2018-10-03T23:36:50.677Z,96221.34
2018-10-03T23:39:19.477Z,96227.11
2018-10-03T23:41:48.336Z,96234.66
2018-10-03T23:44:17.054Z,96238.16
2018-10-03T23:46:45.812Z,96238.91
2018-10-03T23:49:14.444Z,96239.78
2018-10-03T23:51:43.221Z,96233.68
2018-10-03T23:54:12.019Z,96244.84
2018-10-03T23:56:40.798Z,96230.60
2018-10-03T23:59:09.681Z,96235.39
